Time;durP1;ratioP1;P1;durP2;ratioP2;P2;SDS_P1;SDS_P2;PMS_P1;PMS_P2;Temp;Humidity;BMP_temperature;BMP_pressure;BME280_temperature;BME280_humidity;BME280_pressure;Samples;Min_cycle;Max_cycle;Signal;HPM_P1;HPM_P2
2021/08/14 00:00:47;;;;;;;;;3.50;3.00;;;;;24.15;100.00;102022.44;5119540;27;45319;-67
2021/08/14 00:03:12;;;;;;;;;3.00;2.25;;;;;24.18;100.00;102040.09;5119633;27;45417;-67
2021/08/14 00:05:47;;;;;;;;;3.25;3.00;;;;;24.13;100.00;102033.19;5119233;27;46346;-67
2021/08/14 00:08:12;;;;;;;;;3.00;3.00;;;;;24.10;100.00;102029.81;5119218;27;45560;-66
2021/08/14 00:10:38;;;;;;;;;2.00;2.00;;;;;24.06;100.00;102031.78;5119641;27;45345;-66
2021/08/14 00:13:03;;;;;;;;;3.50;2.50;;;;;24.05;100.00;102040.72;5119556;27;45390;-66
2021/08/14 00:15:28;;;;;;;;;3.75;2.75;;;;;24.02;100.00;102032.00;5119437;27;45349;-67
2021/08/14 00:17:54;;;;;;;;;4.25;2.75;;;;;23.97;100.00;102028.69;5119480;27;45310;-66
2021/08/14 00:20:19;;;;;;;;;6.00;4.25;;;;;23.92;100.00;102028.06;5119218;27;45189;-66
2021/08/14 00:22:44;;;;;;;;;3.50;1.75;;;;;23.92;100.00;102034.25;5119463;27;45254;-67
2021/08/14 00:25:10;;;;;;;;;3.50;2.50;;;;;23.86;100.00;102023.03;5118817;27;46636;-67
2021/08/14 00:31:00;;;;;;;;;7.75;5.00;;;;;23.81;100.00;102029.47;5119016;27;45528;-66
2021/08/14 00:33:25;;;;;;;;;5.75;3.00;;;;;23.77;100.00;102014.56;5100639;27;45485;-67
2021/08/14 00:35:50;;;;;;;;;4.00;4.00;;;;;23.75;100.00;102021.72;5118604;27;46407;-67
2021/08/14 00:38:16;;;;;;;;;4.75;3.00;;;;;23.72;100.00;102032.56;5119053;27;45149;-67
2021/08/14 00:40:41;;;;;;;;;3.50;3.25;;;;;23.64;100.00;102031.22;5119126;27;45388;-66
2021/08/14 00:43:07;;;;;;;;;6.00;4.00;;;;;23.62;100.00;102033.09;5119294;27;45209;-66
2021/08/14 00:45:40;;;;;;;;;4.00;3.50;;;;;23.61;100.00;102034.03;5118665;27;45275;-66
2021/08/14 00:48:08;;;;;;;;;4.00;3.00;;;;;23.60;100.00;102035.84;5118464;27;45295;-66
2021/08/14 00:50:34;;;;;;;;;3.75;3.00;;;;;23.55;100.00;102029.81;5118789;27;45357;-66
2021/08/14 00:52:59;;;;;;;;;3.00;2.75;;;;;23.50;100.00;102032.69;5118670;27;45441;-66
2021/08/14 00:55:25;;;;;;;;;5.50;3.75;;;;;23.43;100.00;102017.06;5118531;27;45427;-67
2021/08/14 01:01:12;;;;;;;;;4.50;3.00;;;;;23.37;100.00;102012.03;5118422;27;45307;-66
2021/08/14 01:03:37;;;;;;;;;3.00;3.00;;;;;23.26;100.00;102009.88;5118932;27;45270;-66
2021/08/14 01:06:02;;;;;;;;;5.25;4.00;;;;;23.35;100.00;102037.91;5099761;27;47329;-66
2021/08/14 01:08:28;;;;;;;;;4.25;4.25;;;;;23.29;100.00;102024.84;5118475;27;45229;-66
2021/08/14 01:10:54;;;;;;;;;5.00;3.25;;;;;23.27;100.00;102024.91;5118855;27;45212;-66
2021/08/14 01:13:20;;;;;;;;;3.00;3.00;;;;;23.22;100.00;102022.47;5118834;27;45426;-67
2021/08/14 01:15:50;;;;;;;;;2.50;1.75;;;;;23.13;100.00;102014.91;5118105;27;46720;-66
2021/08/14 01:18:17;;;;;;;;;3.50;3.00;;;;;23.07;100.00;102009.00;5118243;27;45386;-67
2021/08/14 01:20:44;;;;;;;;;3.75;2.75;;;;;23.04;100.00;102006.47;5118286;27;45421;-67
2021/08/14 01:23:13;;;;;;;;;4.00;4.00;;;;;23.05;100.00;102013.53;5118404;27;45385;-66
2021/08/14 01:25:39;;;;;;;;;3.75;3.00;;;;;23.04;100.00;102025.97;5118081;27;46494;-67
2021/08/14 01:28:06;;;;;;;;;3.50;2.75;;;;;22.99;100.00;102020.00;5117574;27;45335;-66
2021/08/14 01:30:32;;;;;;;;;5.00;4.00;;;;;22.96;100.00;102012.16;5120166;27;45362;-66
2021/08/14 01:32:57;;;;;;;;;5.50;3.75;;;;;22.92;100.00;102016.78;5121838;27;45322;-67
2021/08/14 01:35:23;;;;;;;;;4.75;4.75;;;;;22.88;100.00;102014.31;5121689;27;45358;-66
2021/08/14 01:37:48;;;;;;;;;6.25;4.75;;;;;22.84;100.00;102004.72;5121845;27;45297;-67
2021/08/14 01:40:14;;;;;;;;;5.00;4.00;;;;;22.80;100.00;102003.09;5122194;27;45304;-66
2021/08/14 01:46:01;;;;;;;;;3.00;2.75;;;;;22.72;100.00;101998.13;5120133;27;45218;-66
2021/08/14 01:48:26;;;;;;;;;3.50;3.00;;;;;22.75;100.00;102008.63;5121766;27;45325;-67
2021/08/14 01:50:51;;;;;;;;;4.50;4.00;;;;;22.74;100.00;102011.38;5121662;27;45365;-68
2021/08/14 01:53:17;;;;;;;;;3.50;2.00;;;;;22.62;100.00;102000.31;5103275;27;45238;-67
2021/08/14 01:55:42;;;;;;;;;3.25;3.00;;;;;22.63;100.00;101998.50;5121196;27;47551;-67
2021/08/14 01:58:07;;;;;;;;;2.25;2.00;;;;;22.66;100.00;102005.53;5121647;27;45285;-67
2021/08/14 02:00:33;;;;;;;;;4.00;3.50;;;;;22.57;100.00;101991.69;5121688;27;45674;-67
2021/08/14 02:02:58;;;;;;;;;5.25;4.00;;;;;22.52;100.00;101990.16;5121953;27;45263;-67
2021/08/14 02:05:24;;;;;;;;;4.00;3.00;;;;;22.50;100.00;101990.22;5121070;27;47373;-67
2021/08/14 02:07:49;;;;;;;;;3.50;3.25;;;;;22.41;100.00;101979.13;5102719;27;45515;-66
2021/08/14 02:10:14;;;;;;;;;5.00;3.00;;;;;22.50;100.00;101992.88;5121209;27;45339;-66
2021/08/14 02:16:01;;;;;;;;;4.75;4.00;;;;;22.43;100.00;101990.56;5120900;27;45654;-66
2021/08/14 02:18:33;;;;;;;;;5.75;4.00;;;;;22.42;100.00;101987.06;5121118;27;45273;-66
2021/08/14 02:20:58;;;;;;;;;3.25;3.25;;;;;22.38;100.00;101979.25;5121428;27;45323;-66
2021/08/14 02:23:23;;;;;;;;;3.75;3.75;;;;;22.37;100.00;101989.03;5121301;27;45342;-66
2021/08/14 02:25:49;;;;;;;;;4.75;3.00;;;;;22.33;100.00;101982.09;5121013;27;46475;-67
2021/08/14 02:28:14;;;;;;;;;5.00;4.25;;;;;22.31;100.00;101979.50;5120922;27;45270;-67
2021/08/14 02:30:40;;;;;;;;;5.00;3.00;;;;;22.22;100.00;101974.59;5121084;27;45230;-66
2021/08/14 02:33:05;;;;;;;;;5.25;3.00;;;;;22.27;100.00;101980.59;5121374;27;45400;-66
2021/08/14 02:35:30;;;;;;;;;7.75;3.75;;;;;22.22;100.00;101971.94;5120662;27;46612;-66
2021/08/14 02:37:56;;;;;;;;;4.25;4.00;;;;;22.27;100.00;101985.03;5120769;27;45255;-66
2021/08/14 02:40:22;;;;;;;;;5.00;3.00;;;;;22.17;100.00;101968.59;5121059;27;45362;-66
2021/08/14 02:46:08;;;;;;;;;4.50;3.75;;;;;22.13;100.00;101974.97;5120190;27;45755;-66
2021/08/14 02:48:34;;;;;;;;;4.00;3.25;;;;;22.11;100.00;101970.66;5120771;27;45406;-66
2021/08/14 02:51:00;;;;;;;;;5.00;3.25;;;;;22.07;100.00;101961.09;5120632;27;45255;-66
2021/08/14 02:53:25;;;;;;;;;6.25;5.00;;;;;22.09;100.00;101978.72;5121127;27;45378;-66
2021/08/14 02:55:51;;;;;;;;;4.00;3.00;;;;;22.02;100.00;101970.09;5120358;27;46863;-66
2021/08/14 02:58:16;;;;;;;;;3.25;3.25;;;;;22.07;100.00;101975.25;5120414;27;45228;-66
2021/08/14 03:00:42;;;;;;;;;6.00;3.75;;;;;21.98;100.00;101959.66;5120571;27;45310;-66
2021/08/14 03:03:07;;;;;;;;;5.75;3.00;;;;;22.01;100.00;101965.72;5102266;27;45290;-67
2021/08/14 03:05:32;;;;;;;;;6.00;3.25;;;;;21.89;100.00;101936.09;5120505;27;45291;-66
2021/08/14 03:07:58;;;;;;;;;4.75;4.00;;;;;21.96;100.00;101957.06;5120665;27;45247;-67
2021/08/14 03:10:23;;;;;;;;;5.00;4.00;;;;;21.99;100.00;101962.25;5120436;27;45234;-66
2021/08/14 03:16:10;;;;;;;;;6.00;3.75;;;;;21.92;100.00;101954.56;5119980;27;45738;-66
2021/08/14 03:18:36;;;;;;;;;3.50;3.50;;;;;21.92;100.00;101955.44;5120148;27;45340;-67
2021/08/14 03:21:01;;;;;;;;;4.00;3.75;;;;;21.85;100.00;101948.66;5120427;27;45205;-67
2021/08/14 03:23:27;;;;;;;;;5.00;4.00;;;;;21.81;100.00;101943.53;5120695;27;45392;-67
2021/08/14 03:25:52;;;;;;;;;7.00;5.00;;;;;21.85;100.00;101948.66;5119701;27;46545;-66
2021/08/14 03:28:17;;;;;;;;;4.75;3.75;;;;;21.83;100.00;101957.63;5120338;27;45277;-66
2021/08/14 03:30:46;;;;;;;;;4.00;3.00;;;;;21.80;100.00;101953.31;5120405;27;45257;-67
2021/08/14 03:33:11;;;;;;;;;4.25;2.25;;;;;21.78;100.00;101947.19;5120128;27;45474;-66
2021/08/14 03:35:37;;;;;;;;;6.75;4.25;;;;;21.76;100.00;101948.19;5119766;27;46095;-66
2021/08/14 03:38:02;;;;;;;;;5.50;4.00;;;;;21.69;100.00;101945.78;5119914;27;45416;-66
2021/08/14 03:40:28;;;;;;;;;5.50;4.00;;;;;21.72;100.00;101952.75;5119997;27;45412;-66
2021/08/14 03:46:14;;;;;;;;;5.25;4.25;;;;;21.63;100.00;101945.16;5119102;27;45638;-66
2021/08/14 03:48:44;;;;;;;;;3.50;3.25;;;;;21.62;100.00;101949.63;5119792;27;45300;-66
2021/08/14 03:51:09;;;;;;;;;5.75;3.50;;;;;21.60;100.00;101947.94;5119905;27;45297;-67
2021/08/14 03:53:35;;;;;;;;;5.25;4.50;;;;;21.47;100.00;101926.31;5119629;27;45209;-66
2021/08/14 03:56:00;;;;;;;;;3.75;3.75;;;;;21.57;100.00;101945.44;5119498;27;46561;-66
2021/08/14 03:58:25;;;;;;;;;5.00;4.25;;;;;21.52;100.00;101940.31;5119648;27;45432;-66
2021/08/14 04:00:51;;;;;;;;;7.00;3.00;;;;;21.49;100.00;101934.22;5119651;27;45337;-66
2021/08/14 04:03:17;;;;;;;;;3.00;3.00;;;;;21.50;100.00;101936.84;5120115;27;45328;-66
2021/08/14 04:05:42;;;;;;;;;6.50;4.00;;;;;21.47;100.00;101933.41;5119119;27;47408;-67
2021/08/14 04:08:07;;;;;;;;;3.75;3.75;;;;;21.40;100.00;101920.41;5119691;27;45249;-66
2021/08/14 04:10:33;;;;;;;;;4.50;3.50;;;;;21.42;100.00;101930.09;5119348;27;45223;-66
2021/08/14 04:16:19;;;;;;;;;4.25;4.00;;;;;21.36;100.00;101928.56;5118994;27;45647;-66
2021/08/14 04:18:45;;;;;;;;;5.00;4.00;;;;;21.35;100.00;101926.81;5119037;27;45389;-67
2021/08/14 04:21:10;;;;;;;;;6.00;6.00;;;;;21.33;100.00;101920.72;5119424;27;45244;-68
2021/08/14 04:23:35;;;;;;;;;5.25;4.00;;;;;21.32;100.00;101919.84;5119647;27;45441;-66
2021/08/14 04:26:01;;;;;;;;;4.00;4.00;;;;;21.22;100.00;101912.25;5119124;27;45261;-67
2021/08/14 04:28:27;;;;;;;;;5.75;4.75;;;;;21.26;100.00;101917.41;5118920;27;45365;-67
2021/08/14 04:30:52;;;;;;;;;4.25;4.25;;;;;21.29;100.00;101927.94;5119073;27;45257;-67
2021/08/14 04:33:17;;;;;;;;;5.00;4.50;;;;;21.27;100.00;101921.78;5119504;27;45229;-67
2021/08/14 04:35:43;;;;;;;;;3.75;3.75;;;;;21.20;100.00;101912.31;5118670;27;47102;-68
2021/08/14 04:38:08;;;;;;;;;6.00;4.50;;;;;21.26;100.00;101929.84;5119026;27;45430;-67
2021/08/14 04:40:34;;;;;;;;;4.75;4.00;;;;;21.22;100.00;101914.91;5119029;27;45294;-67
2021/08/14 04:46:20;;;;;;;;;3.75;3.00;;;;;21.19;100.00;101915.91;5118067;27;45296;-66
2021/08/14 04:48:46;;;;;;;;;6.50;4.00;;;;;21.12;100.00;101908.25;5118703;27;45286;-67
2021/08/14 04:51:11;;;;;;;;;5.50;3.50;;;;;21.15;100.00;101908.13;5118944;27;45345;-67
2021/08/14 04:53:36;;;;;;;;;7.00;5.25;;;;;21.18;100.00;101918.63;5119119;27;45212;-66
2021/08/14 04:56:02;;;;;;;;;4.50;4.00;;;;;21.15;100.00;101910.78;5118814;27;45305;-66
2021/08/14 04:58:27;;;;;;;;;5.25;4.00;;;;;21.16;100.00;101910.72;5118356;27;45229;-67
2021/08/14 05:00:52;;;;;;;;;4.50;3.00;;;;;21.17;100.00;101909.78;5118533;27;45364;-67
2021/08/14 05:03:18;;;;;;;;;5.00;4.00;;;;;21.14;100.00;101904.59;5119054;27;45254;-67
2021/08/14 05:05:43;;;;;;;;;4.00;4.00;;;;;21.18;100.00;101918.63;5117284;27;46379;-67
2021/08/14 05:08:10;;;;;;;;;4.50;4.00;;;;;21.13;100.00;101910.84;5118717;27;45279;-67
2021/08/14 05:10:36;;;;;;;;;4.25;4.00;;;;;21.14;100.00;101911.72;5118744;27;45290;-67
2021/08/14 05:16:25;;;;;;;;;6.00;5.00;;;;;21.19;100.00;101923.00;5118229;27;45743;-66
2021/08/14 05:18:54;;;;;;;;;4.75;4.25;;;;;21.08;100.00;101894.22;5118198;27;45535;-66
2021/08/14 05:21:19;;;;;;;;;9.00;7.00;;;;;21.21;100.00;101918.50;5118787;27;45325;-67
2021/08/14 05:23:45;;;;;;;;;10.00;7.25;;;;;21.05;100.00;101889.91;5118773;27;45292;-67
2021/08/14 05:26:10;;;;;;;;;9.75;7.50;;;;;21.22;100.00;101923.75;5118142;27;45579;-67
2021/08/14 05:28:35;;;;;;;;;6.00;5.00;;;;;21.26;100.00;101927.19;5118367;27;45350;-67
2021/08/14 05:31:01;;;;;;;;;5.25;5.00;;;;;21.22;100.00;101921.09;5118420;27;45255;-67
2021/08/14 05:33:26;;;;;;;;;8.75;6.50;;;;;21.26;100.00;101927.19;5118776;27;45264;-67
2021/08/14 05:35:52;;;;;;;;;7.50;6.00;;;;;21.31;100.00;101933.19;5117823;27;46456;-67
2021/08/14 05:38:17;;;;;;;;;10.50;8.25;;;;;21.32;100.00;101932.28;5118291;27;45263;-66
2021/08/14 05:40:42;;;;;;;;;6.75;5.00;;;;;21.32;100.00;101932.28;5118082;27;45270;-66
2021/08/14 05:46:29;;;;;;;;;7.00;4.00;;;;;21.24;100.00;101913.97;5117507;27;45628;-66
2021/08/14 05:48:54;;;;;;;;;5.75;4.50;;;;;21.35;100.00;101924.16;5118035;27;45312;-67
2021/08/14 05:51:20;;;;;;;;;7.25;5.00;;;;;21.39;100.00;101928.44;5117786;27;45205;-67
2021/08/14 05:53:45;;;;;;;;;4.75;4.75;;;;;21.47;100.00;101942.25;5118156;27;45224;-67
2021/08/14 05:56:11;;;;;;;;;4.00;4.00;;;;;21.47;100.00;101942.25;5117819;27;45518;-67
2021/08/14 05:58:36;;;;;;;;;4.75;4.75;;;;;21.47;100.00;101939.59;5117942;27;45310;-66
2021/08/14 06:01:01;;;;;;;;;8.00;6.00;;;;;21.54;100.00;101949.06;5118094;27;45257;-67
2021/08/14 06:03:33;;;;;;;;;7.00;5.25;;;;;21.57;100.00;101943.63;5117719;27;45331;-67
2021/08/14 06:05:58;;;;;;;;;6.50;5.50;;;;;21.58;100.00;101939.19;5117937;27;46317;-67
2021/08/14 06:08:24;;;;;;;;;6.25;5.75;;;;;21.60;100.00;101939.97;5117639;27;45361;-67
2021/08/14 06:10:49;;;;;;;;;7.25;6.00;;;;;21.68;100.00;101960.00;5117781;27;45418;-67
2021/08/14 06:16:36;;;;;;;;;6.75;5.75;;;;;21.73;100.00;101956.28;5119150;27;45703;-67
2021/08/14 06:19:01;;;;;;;;;8.75;5.00;;;;;21.74;100.00;101952.72;5121120;27;45354;-67
2021/08/14 06:21:27;;;;;;;;;6.00;4.00;;;;;21.79;100.00;101958.69;5102636;27;45352;-67
2021/08/14 06:23:52;;;;;;;;;6.25;5.00;;;;;21.82;100.00;101958.56;5121169;27;45522;-67
2021/08/14 06:26:17;;;;;;;;;4.00;4.00;;;;;21.86;100.00;101954.84;5120893;27;47171;-67
2021/08/14 06:28:43;;;;;;;;;6.75;5.25;;;;;21.87;100.00;101954.78;5120753;27;45379;-67
2021/08/14 06:31:11;;;;;;;;;6.50;5.00;;;;;21.92;100.00;101952.78;5121187;27;45265;-68
2021/08/14 06:33:37;;;;;;;;;6.75;6.00;;;;;21.95;100.00;101949.13;5121135;27;45300;-67
2021/08/14 06:36:02;;;;;;;;;4.25;4.25;;;;;21.95;100.00;101936.72;5120643;27;47146;-67
2021/08/14 06:38:27;;;;;;;;;7.50;4.75;;;;;22.06;100.00;101957.56;5120585;27;45281;-67
2021/08/14 06:40:53;;;;;;;;;10.50;5.75;;;;;22.09;100.00;101949.44;5121078;27;45275;-67
2021/08/14 06:46:40;;;;;;;;;6.50;5.00;;;;;22.17;100.00;101947.31;5120043;27;45851;-67
2021/08/14 06:49:05;;;;;;;;;4.75;4.00;;;;;22.17;100.00;101942.00;5120917;27;45310;-67
2021/08/14 06:51:30;;;;;;;;;6.50;5.25;;;;;22.25;100.00;101950.53;5120873;27;45203;-67
2021/08/14 06:54:00;;;;;;;;;5.00;5.00;;;;;22.33;100.00;101950.19;5121035;27;45221;-67
2021/08/14 06:56:25;;;;;;;;;6.00;5.25;;;;;22.39;100.00;101954.34;5120581;27;45428;-67
2021/08/14 06:58:51;;;;;;;;;5.25;4.25;;;;;22.43;100.00;101955.97;5120160;27;45342;-66
2021/08/14 07:01:16;;;;;;;;;5.00;4.00;;;;;22.45;100.00;101951.44;5102539;27;45334;-67
2021/08/14 07:03:42;;;;;;;;;6.00;4.50;;;;;22.54;100.00;101967.00;5120764;27;45377;-67
2021/08/14 07:06:07;;;;;;;;;5.00;4.00;;;;;22.61;100.00;101957.78;5120486;27;45471;-67
2021/08/14 07:08:33;;;;;;;;;6.00;4.25;;;;;22.63;100.00;101955.91;5120406;27;45501;-67
2021/08/14 07:10:58;;;;;;;;;5.75;4.75;;;;;22.63;100.00;101947.94;5120610;27;45379;-67
2021/08/14 07:16:45;;;;;;;;;4.25;3.25;;;;;22.77;100.00;101961.50;5120030;27;45323;-66
2021/08/14 07:19:10;;;;;;;;;4.50;3.75;;;;;22.79;100.00;101953.44;5120239;27;45345;-66
2021/08/14 07:21:36;;;;;;;;;4.50;3.50;;;;;22.86;100.00;101954.94;5120073;27;45358;-66
2021/08/14 07:24:01;;;;;;;;;5.75;4.75;;;;;22.89;100.00;101949.47;5120563;27;45337;-67
2021/08/14 07:26:27;;;;;;;;;5.50;4.25;;;;;22.97;100.00;101957.94;5120127;27;45428;-67
2021/08/14 07:28:52;;;;;;;;;5.00;4.00;;;;;22.99;100.00;101944.56;5119381;27;45373;-66
2021/08/14 07:31:17;;;;;;;;;6.50;4.50;;;;;23.09;100.00;101961.84;5120286;27;45310;-67
2021/08/14 07:33:43;;;;;;;;;10.00;5.25;;;;;23.13;100.00;101952.78;5120369;27;45424;-67
2021/08/14 07:36:09;;;;;;;;;8.25;5.00;;;;;23.14;100.00;101949.16;5119634;27;45439;-67
2021/08/14 07:38:35;;;;;;;;;4.50;4.00;;;;;23.26;100.00;101953.91;5120068;27;45554;-67
2021/08/14 07:41:00;;;;;;;;;3.00;2.75;;;;;23.28;100.00;101941.34;5119917;27;45299;-67
2021/08/14 07:46:48;;;;;;;;;3.25;2.75;;;;;23.44;100.00;101941.50;5119275;27;45712;-67
2021/08/14 07:49:14;;;;;;;;;4.25;3.00;;;;;23.49;100.00;101934.13;5119850;27;45317;-67
2021/08/14 07:51:39;;;;;;;;;3.75;1.75;;;;;23.55;100.00;101938.31;5119950;27;45316;-67
2021/08/14 07:54:04;;;;;;;;;6.25;4.00;;;;;;;;5119840;27;45406;-67
2021/08/14 07:56:30;;;;;;;;;4.33;4.00;;;;;23.70;100.00;101937.56;5119229;27;46367;-67
2021/08/14 07:58:55;;;;;;;;;4.00;4.00;;;;;23.78;100.00;101933.59;5100720;27;46029;-67
2021/08/14 08:01:20;;;;;;;;;3.25;2.00;;;;;23.76;100.00;101913.25;5119458;27;45709;-67
2021/08/14 08:03:46;;;;;;;;;4.25;3.00;;;;;23.83;100.00;101914.69;5119790;27;45280;-66
2021/08/14 08:06:11;;;;;;;;;5.25;3.00;;;;;23.98;100.00;101927.22;5119179;27;47242;-66
2021/08/14 08:08:37;;;;;;;;;4.00;3.75;;;;;24.01;100.00;101911.06;5100803;27;45970;-66
2021/08/14 08:11:03;;;;;;;;;2.75;2.75;;;;;24.13;100.00;101915.75;5119390;27;45173;-66
2021/08/14 08:16:51;;;;;;;;;3.75;3.00;;;;;24.52;100.00;101922.63;5119084;27;45172;-66
2021/08/14 08:19:17;;;;;;;;;3.25;2.50;;;;;24.63;100.00;101908.69;5119434;27;45524;-66
2021/08/14 08:21:42;;;;;;;;;3.00;3.00;;;;;24.83;100.00;101926.31;5119267;27;45324;-66
2021/08/14 08:24:08;;;;;;;;;3.00;2.25;;;;;25.01;100.00;101915.50;5119509;27;45245;-66
2021/08/14 08:26:33;;;;;;;;;4.00;3.00;;;;;25.13;100.00;101905.94;5119142;27;45345;-66
2021/08/14 08:28:59;;;;;;;;;3.00;2.00;;;;;25.32;100.00;101909.25;5119160;27;45273;-66
2021/08/14 08:31:25;;;;;;;;;3.75;3.00;;;;;25.54;100.00;101916.03;5119040;27;45571;-66
2021/08/14 08:33:50;;;;;;;;;4.00;4.00;;;;;25.53;100.00;101883.09;5119173;27;45392;-66
2021/08/14 08:36:16;;;;;;;;;5.75;5.00;;;;;25.86;100.00;101914.19;5118611;27;46135;-66
2021/08/14 08:38:41;;;;;;;;;4.50;3.00;;;;;26.03;100.00;101916.72;5118372;27;45295;-66
2021/08/14 08:41:08;;;;;;;;;5.00;3.25;;;;;26.19;100.00;101911.28;5118242;27;45348;-66
2021/08/14 08:46:56;;;;;;;;;5.00;2.25;;;;;26.58;100.00;101915.16;5118132;27;45414;-66
2021/08/14 08:49:23;;;;;;;;;2.50;2.25;;;;;26.71;100.00;101905.41;5118624;27;45636;-66
2021/08/14 08:51:49;;;;;;;;;4.75;3.75;;;;;26.85;100.00;101906.22;5118706;27;45507;-67
2021/08/14 08:54:15;;;;;;;;;4.00;2.25;;;;;26.93;99.59;101889.66;5119098;27;45289;-66
2021/08/14 08:56:41;;;;;;;;;4.00;3.00;;;;;27.12;97.81;101895.56;5118368;27;46196;-66
2021/08/14 08:59:11;;;;;;;;;6.25;4.00;;;;;27.16;96.93;101882.84;5118727;27;45282;-67
2021/08/14 09:01:37;;;;;;;;;3.00;3.00;;;;;27.38;93.95;101896.53;5118361;27;45380;-67
2021/08/14 09:04:38;;;;;;;;;2.25;1.00;;;;;27.55;93.96;101895.41;5118888;27;45298;-66
2021/08/14 09:07:03;;;;;;;;;4.25;4.00;;;;;27.68;92.43;101890.13;5055248;28;45321;-67
2021/08/14 09:09:31;;;;;;;;;3.50;3.00;;;;;27.73;91.50;101864.69;5055073;28;45518;-67
2021/08/14 09:12:03;;;;;;;;;4.00;3.00;;;;;28.07;88.38;101886.53;5054898;28;45420;-66
2021/08/14 09:14:49;;;;;;;;;4.00;4.00;;;;;28.28;90.73;101889.53;5055467;28;45397;-66
2021/08/14 09:17:15;;;;;;;;;3.00;2.75;;;;;28.53;89.83;101894.06;5054919;28;46656;-66
2021/08/14 09:19:41;;;;;;;;;5.00;4.00;;;;;28.74;87.12;101887.09;5054985;28;45442;-66
2021/08/14 09:22:14;;;;;;;;;2.50;2.50;;;;;29.04;87.45;101886.75;5055079;28;45444;-66
2021/08/14 09:24:40;;;;;;;;;3.75;3.00;;;;;29.34;87.06;101886.28;5055257;28;45375;-66
2021/08/14 09:27:06;;;;;;;;;3.50;2.00;;;;;29.65;86.67;101881.28;5054439;28;46254;-66
2021/08/14 09:29:37;;;;;;;;;1.50;1.00;;;;;29.96;84.58;101875.25;5054995;28;45637;-66
2021/08/14 09:32:08;;;;;;;;;4.00;3.00;;;;;30.40;83.62;101898.75;5054711;28;45298;-67
2021/08/14 09:34:37;;;;;;;;;4.00;3.00;;;;;30.82;82.11;101892.75;5054838;28;45401;-66
2021/08/14 09:37:11;;;;;;;;;4.75;3.00;;;;;31.22;79.71;101880.38;5054298;28;46519;-67
2021/08/14 09:40:01;;;;;;;;;3.75;3.00;;;;;31.75;79.22;101883.16;5054925;28;45373;-67
2021/08/14 09:42:27;;;;;;;;;4.75;3.00;;;;;32.29;78.10;101879.34;5118236;27;45408;-67
2021/08/14 09:45:16;;;;;;;;;3.75;3.75;;;;;32.99;76.90;101881.16;5118336;27;45378;-66
2021/08/14 09:47:43;;;;;;;;;3.00;2.25;;;;;33.67;75.87;101864.97;5117571;27;45251;-66
2021/08/14 09:50:09;;;;;;;;;4.75;2.75;;;;;34.47;73.81;101871.78;5117870;27;45279;-67
2021/08/14 09:52:35;;;;;;;;;4.00;3.00;;;;;35.40;70.81;101885.06;5121078;27;45310;-67
2021/08/14 09:55:01;;;;;;;;;3.00;3.00;;;;;36.19;66.49;101868.66;5121950;27;45346;-66
2021/08/14 09:57:26;;;;;;;;;3.00;2.50;;;;;37.06;63.28;101869.38;5121038;27;45365;-68
2021/08/14 09:59:52;;;;;;;;;4.00;3.75;;;;;37.87;59.09;101864.00;5121422;27;45377;-67
2021/08/14 10:02:25;;;;;;;;;5.00;3.25;;;;;38.51;57.01;101873.03;5121371;27;45300;-67
2021/08/14 10:04:52;;;;;;;;;4.75;3.00;;;;;38.91;54.79;101871.13;5121982;27;45531;-68
2021/08/14 10:07:18;;;;;;;;;3.00;2.25;;;;;39.00;52.91;101867.31;5121395;27;46144;-67
2021/08/14 10:09:45;;;;;;;;;4.75;3.00;;;;;38.72;51.40;101867.00;5121379;27;45517;-67
2021/08/14 10:12:12;;;;;;;;;3.25;3.00;;;;;38.12;52.88;101872.13;5121551;27;45289;-67
2021/08/14 10:14:42;;;;;;;;;4.25;4.00;;;;;37.64;53.79;101861.09;5121629;27;45235;-67
2021/08/14 10:17:08;;;;;;;;;5.50;4.00;;;;;37.29;54.53;101858.72;5121128;27;46191;-67
2021/08/14 10:19:34;;;;;;;;;7.75;3.00;;;;;37.05;53.90;101851.34;5121111;27;45463;-67
2021/08/14 10:22:00;;;;;;;;;6.25;4.75;;;;;37.05;55.54;101859.50;5121487;27;45359;-67
2021/08/14 10:24:33;;;;;;;;;3.75;3.25;;;;;37.42;53.28;101844.59;5121547;27;45146;-67
2021/08/14 10:27:07;;;;;;;;;5.00;4.50;;;;;38.20;53.00;101845.69;5120778;27;47365;-67
2021/08/14 10:29:45;;;;;;;;;3.00;2.50;;;;;39.13;48.82;101845.72;5120863;27;45417;-67
2021/08/14 10:32:10;;;;;;;;;3.75;3.00;;;;;40.00;47.29;101848.03;5121192;27;45337;-65
2021/08/14 10:34:37;;;;;;;;;3.00;2.75;;;;;40.79;44.21;101837.28;5121523;27;45225;-66
2021/08/14 10:37:32;;;;;;;;;5.00;4.50;;;;;41.45;43.94;101838.00;5121124;27;46530;-66
2021/08/14 10:39:57;;;;;;;;;3.75;3.75;;;;;42.04;42.36;101827.41;5121028;27;45295;-67
2021/08/14 10:42:53;;;;;;;;;5.25;3.00;;;;;42.93;40.50;101835.66;5120657;27;45277;-65
2021/08/14 10:45:30;;;;;;;;;4.50;4.00;;;;;43.89;37.57;101824.22;5121169;27;45235;-67
2021/08/14 10:47:55;;;;;;;;;4.00;3.25;;;;;44.70;35.45;101824.56;5120323;27;45562;-66
2021/08/14 10:50:32;;;;;;;;;3.25;3.25;;;;;45.33;33.67;101827.34;5120766;27;45335;-66
2021/08/14 10:53:10;;;;;;;;;3.00;3.00;;;;;45.76;33.29;101824.59;5120862;27;45339;-68
2021/08/14 10:55:36;;;;;;;;;4.00;3.50;;;;;46.03;32.56;101819.63;5121093;27;45356;-66
2021/08/14 10:58:37;;;;;;;;;5.00;4.00;;;;;46.50;32.05;101824.59;5120561;27;45285;-67
2021/08/14 11:01:02;;;;;;;;;3.50;2.75;;;;;47.10;29.64;101819.03;5120414;27;45550;-66
2021/08/14 11:03:32;;;;;;;;;4.00;4.00;;;;;47.62;30.36;101814.50;5119520;27;45366;-66
2021/08/14 11:06:28;;;;;;;;;4.00;3.25;;;;;48.31;29.86;101811.88;5120449;27;45278;-67
2021/08/14 11:09:16;;;;;;;;;3.50;3.00;;;;;48.94;29.61;101808.09;5113535;27;47271;-67
2021/08/14 11:11:42;;;;;;;;;5.75;4.25;;;;;49.41;28.03;101816.06;5056897;28;45493;-67
2021/08/14 11:14:12;;;;;;;;;3.00;3.00;;;;;49.87;26.78;101807.31;5056978;28;45355;-68
2021/08/14 11:17:00;;;;;;;;;3.00;3.00;;;;;50.21;25.69;101794.13;5057258;28;45248;-67
2021/08/14 11:19:55;;;;;;;;;4.75;4.25;;;;;50.36;27.01;101799.03;5056768;28;46449;-68
2021/08/14 11:22:26;;;;;;;;;4.00;3.25;;;;;50.75;26.23;101804.47;5056947;28;45650;-67
2021/08/14 11:24:54;;;;;;;;;4.25;4.00;;;;;51.18;25.84;101806.22;5056659;28;45377;-68
2021/08/14 11:30:45;;;;;;;;;3.00;2.00;;;;;52.18;24.18;101792.28;5056400;28;45301;-67
2021/08/14 11:33:12;;;;;;;;;4.75;4.75;;;;;52.66;23.26;101799.34;5056241;28;45627;-68
2021/08/14 11:35:39;;;;;;;;;5.50;3.00;;;;;52.80;22.16;101789.34;5056401;28;45543;-67
2021/08/14 11:38:07;;;;;;;;;5.25;3.50;;;;;52.87;22.00;101784.31;5056555;28;45427;-67
2021/08/14 11:40:35;;;;;;;;;4.25;3.75;;;;;52.99;21.78;101786.84;5056528;28;46394;-68
2021/08/14 11:46:25;;;;;;;;;2.75;2.75;;;;;52.62;21.79;101779.56;5055955;28;45346;-68
2021/08/14 11:48:53;;;;;;;;;5.00;4.00;;;;;52.54;21.35;101779.28;5090088;27;45427;-67
2021/08/14 11:51:21;;;;;;;;;4.00;4.00;;;;;52.77;22.27;101778.75;5119770;27;46018;-68
2021/08/14 11:53:47;;;;;;;;;5.50;4.00;;;;;53.10;21.29;101777.34;5119788;27;45275;-69
2021/08/14 11:56:15;;;;;;;;;5.50;5.50;;;;;53.47;21.36;101790.13;5119178;27;45222;-68
2021/08/14 12:02:02;;;;;;;;;5.75;5.75;;;;;53.73;21.03;101771.34;5119344;27;45520;-67
2021/08/14 12:04:27;;;;;;;;;4.50;4.00;;;;;53.33;21.16;101766.66;5119205;27;45348;-67
2021/08/14 12:06:58;;;;;;;;;5.00;4.75;;;;;52.72;20.88;101758.34;5100901;27;45256;-67
2021/08/14 12:09:27;;;;;;;;;5.75;5.00;;;;;52.32;21.04;101754.41;5119573;27;45453;-67
2021/08/14 12:11:54;;;;;;;;;4.75;4.25;;;;;51.92;21.73;101755.97;5119225;27;46383;-68
2021/08/14 12:17:43;;;;;;;;;6.50;5.75;;;;;51.58;22.06;101749.94;5119191;27;45336;-68
2021/08/14 12:20:09;;;;;;;;;6.00;5.75;;;;;51.84;21.89;101741.72;5119438;27;45463;-68
2021/08/14 12:22:37;;;;;;;;;5.25;5.25;;;;;52.41;20.84;101747.19;5118978;27;46567;-68
2021/08/14 12:25:22;;;;;;;;;5.75;5.75;;;;;53.00;20.59;101751.38;5119228;27;45344;-68
2021/08/14 12:27:47;;;;;;;;;6.25;5.25;;;;;53.61;19.66;101742.84;5119028;27;45304;-68
2021/08/14 12:30:21;;;;;;;;;5.00;4.00;;;;;54.25;19.76;101739.16;5119595;27;45385;-68